Time;durP1;ratioP1;P1;durP2;ratioP2;P2;SDS_P1;SDS_P2;PMS_P1;PMS_P2;Temp;Humidity;BMP_temperature;BMP_pressure;BME280_temperature;BME280_humidity;BME280_pressure;Samples;Min_cycle;Max_cycle;Signal;HPM_P1;HPM_P2
2022/01/28 00:00:10;;;;;;;14.60;2.97;;;5.90;99.90;;;;;;4991070;28;20693;-59
2022/01/28 00:03:21;;;;;;;18.90;3.45;;;5.90;99.90;;;;;;5058266;28;20045;-58
2022/01/28 00:05:22;;;;;;;13.30;3.03;;;5.90;99.90;;;;;;5004624;28;20076;-59
2022/01/28 00:07:49;;;;;;;17.95;3.08;;;5.90;99.90;;;;;;4992058;28;20708;-58
2022/01/28 00:10:16;;;;;;;25.45;5.30;;;5.80;99.90;;;;;;4975926;28;20060;-58
2022/01/28 00:13:14;;;;;;;23.30;3.83;;;5.80;99.90;;;;;;4994222;23;20087;-57
2022/01/28 00:15:34;;;;;;;19.27;3.70;;;5.90;99.90;;;;;;4976842;28;20108;-56
2022/01/28 00:37:23;;;;;;;19.42;3.28;;;6.00;99.90;;;;;;5055740;28;20055;-59
2022/01/28 00:39:50;;;;;;;20.13;5.18;;;6.10;99.90;;;;;;4980084;28;20046;-59
2022/01/28 00:42:16;;;;;;;17.33;3.45;;;6.10;99.90;;;;;;4960579;28;20034;-59
2022/01/28 00:44:43;;;;;;;17.70;3.30;;;6.20;99.90;;;;;;4975892;28;20127;-58
2022/01/28 00:47:08;;;;;;;14.57;2.72;;;6.20;99.90;;;;;;4970674;28;20497;-58
2022/01/28 00:49:34;;;;;;;14.75;4.05;;;6.20;99.90;;;;;;4967975;28;20166;-57
2022/01/28 00:52:00;;;;;;;8.70;2.05;;;6.20;99.90;;;;;;5061202;28;20359;-58
2022/01/28 00:54:26;;;;;;;20.35;3.28;;;6.20;99.90;;;;;;4962933;28;20409;-58
2022/01/28 00:56:51;;;;;;;8.52;2.53;;;6.10;99.90;;;;;;4979014;28;20054;-57
2022/01/28 00:59:17;;;;;;;12.20;2.50;;;6.10;99.90;;;;;;5058513;28;20045;-56
2022/01/28 01:01:43;;;;;;;18.83;3.47;;;6.00;99.90;;;;;;4976034;28;20038;-58
2022/01/28 01:04:09;;;;;;;13.68;2.97;;;5.90;99.90;;;;;;5055580;28;20129;-59
2022/01/28 01:06:35;;;;;;;18.30;2.92;;;5.90;99.90;;;;;;4989687;28;20053;-57
2022/01/28 01:09:01;;;;;;;16.10;2.92;;;5.80;99.90;;;;;;4958383;28;20054;-57
2022/01/28 01:11:28;;;;;;;17.10;3.30;;;5.70;99.90;;;;;;4973359;28;20065;-58
2022/01/28 01:13:55;;;;;;;20.55;3.40;;;5.70;99.90;;;;;;5061210;28;20044;-58
2022/01/28 01:16:29;;;;;;;22.77;3.67;;;5.60;99.90;;;;;;4973688;28;20045;-57
2022/01/28 01:19:21;;;;;;;22.60;5.68;;;5.70;99.90;;;;;;4980518;28;20047;-58
2022/01/28 01:21:43;;;;;;;22.77;4.82;;;5.60;99.90;;;;;;4972238;28;20057;-58
2022/01/28 01:24:18;;;;;;;31.95;4.78;;;5.70;99.90;;;;;;5040679;28;20034;-55
2022/01/28 01:26:44;;;;;;;20.27;3.45;;;5.70;99.90;;;;;;4972438;28;20049;-58
2022/01/28 01:29:12;;;;;;;24.85;3.70;;;5.70;99.90;;;;;;5057341;28;20038;-56
2022/01/28 01:31:41;;;;;;;30.45;5.85;;;5.80;99.90;;;;;;4963328;28;20407;-58
2022/01/28 01:34:19;;;;;;;28.90;4.60;;;5.80;99.90;;;;;;4969585;28;20304;-58
2022/01/28 01:36:45;;;;;;;29.00;5.47;;;5.80;99.90;;;;;;4972010;28;20042;-58
2022/01/28 01:39:14;;;;;;;26.42;4.55;;;5.80;99.90;;;;;;4967945;28;20044;-57
2022/01/28 01:42:11;;;;;;;23.83;3.70;;;5.80;99.90;;;;;;5053439;28;20038;-58
2022/01/28 01:44:48;;;;;;;32.38;4.47;;;5.70;99.90;;;;;;4983937;28;20050;-58
2022/01/28 01:52:25;;;;;;;22.00;3.60;;;5.80;99.90;;;;;;5054584;28;20103;-58
2022/01/28 01:54:52;;;;;;;28.33;4.25;;;5.80;99.90;;;;;;4956747;28;20050;-58
2022/01/28 01:57:18;;;;;;;20.15;4.00;;;5.80;99.90;;;;;;5054257;28;20039;-58
2022/01/28 01:59:44;;;;;;;31.30;4.75;;;5.80;99.90;;;;;;4967937;28;20035;-58
2022/01/28 02:02:11;;;;;;;26.60;4.57;;;5.70;99.90;;;;;;4977356;28;20039;-59
2022/01/28 02:04:42;;;;;;;30.98;5.78;;;5.70;99.90;;;;;;4975271;28;20491;-58
2022/01/28 02:07:12;;;;;;;21.73;4.13;;;5.70;99.90;;;;;;4974550;28;20408;-59
2022/01/28 02:09:38;;;;;;;17.42;4.55;;;5.80;99.90;;;;;;4972490;28;20071;-59
2022/01/28 02:12:04;;;;;;;34.58;4.97;;;5.70;99.90;;;;;;4966727;28;20043;-58
2022/01/28 02:14:30;;;;;;;25.58;5.40;;;5.80;99.90;;;;;;4956297;28;20042;-62
2022/01/28 02:16:55;;;;;;;20.75;4.20;;;5.80;99.90;;;;;;4967300;28;20042;-58
2022/01/28 02:19:21;;;;;;;21.67;4.07;;;5.80;99.90;;;;;;4968424;28;20042;-58
2022/01/28 02:21:50;;;;;;;19.73;5.15;;;5.80;99.90;;;;;;4989506;28;20053;-58
2022/01/28 02:24:21;;;;;;;22.90;4.43;;;5.80;99.90;;;;;;4971510;28;20512;-58
2022/01/28 02:26:47;;;;;;;26.83;4.72;;;5.90;99.90;;;;;;4954942;28;20042;-57
2022/01/28 02:29:17;;;;;;;25.08;4.03;;;5.90;99.90;;;;;;4961093;28;20043;-58
2022/01/28 02:31:43;;;;;;;27.85;5.20;;;5.90;99.90;;;;;;4972570;28;20137;-58
2022/01/28 02:34:11;;;;;;;29.15;5.25;;;5.90;99.90;;;;;;4981175;28;20122;-58
2022/01/28 02:36:38;;;;;;;22.98;4.50;;;6.00;99.90;;;;;;4958278;28;20527;-58
2022/01/28 02:39:04;;;;;;;24.58;4.38;;;6.00;99.90;;;;;;5055318;28;20054;-58
2022/01/28 02:41:35;;;;;;;25.00;4.47;;;6.00;99.90;;;;;;4968565;28;20043;-57
2022/01/28 02:44:19;;;;;;;23.13;4.32;;;6.00;99.90;;;;;;4973679;28;20129;-57
2022/01/28 02:47:00;;;;;;;38.30;5.22;;;6.10;99.90;;;;;;4970112;28;20035;-58
2022/01/28 02:49:32;;;;;;;23.60;4.43;;;6.10;99.90;;;;;;4954962;28;20070;-58
2022/01/28 02:51:59;;;;;;;20.83;5.43;;;6.20;99.90;;;;;;4966972;28;20055;-57
2022/01/28 02:54:25;;;;;;;23.50;4.53;;;6.30;99.90;;;;;;4976799;28;20057;-58
2022/01/28 02:56:54;;;;;;;24.60;4.40;;;6.20;99.90;;;;;;4976001;28;21233;-58
2022/01/28 02:59:21;;;;;;;22.45;4.10;;;6.30;99.90;;;;;;4983517;28;20070;-58
2022/01/28 03:01:47;;;;;;;20.90;4.63;;;6.30;99.90;;;;;;4972111;28;20051;-58
2022/01/28 03:04:29;;;;;;;25.42;4.68;;;6.30;99.90;;;;;;4977527;28;20048;-58
2022/01/28 03:06:55;;;;;;;19.13;3.90;;;6.30;99.90;;;;;;4972223;28;20058;-57
2022/01/28 03:09:21;;;;;;;25.10;5.20;;;6.30;99.90;;;;;;5054355;28;20061;-56
2022/01/28 03:12:00;;;;;;;29.00;4.97;;;6.20;99.90;;;;;;5026145;28;20087;-55
2022/01/28 03:14:54;;;;;;;24.08;4.47;;;6.20;99.90;;;;;;4982312;28;20046;-58
2022/01/28 03:18:09;;;;;;;28.45;4.72;;;6.10;99.90;;;;;;4976221;28;20131;-55
2022/01/28 03:22:45;;;;;;;31.95;4.65;;;6.00;99.90;;;;;;4959849;28;20058;-57
2022/01/28 03:25:12;;;;;;;24.65;4.47;;;6.00;99.90;;;;;;4973363;28;20115;-56
2022/01/28 03:30:16;;;;;;;18.65;4.65;;;5.90;99.90;;;;;;4983993;28;20091;-60
2022/01/28 03:32:41;;;;;;;23.83;3.85;;;5.90;99.90;;;;;;5043562;28;20049;-57
2022/01/28 03:35:09;;;;;;;22.98;5.45;;;5.90;99.90;;;;;;4980570;28;20038;-55
2022/01/28 03:37:35;;;;;;;25.80;4.53;;;5.90;99.90;;;;;;4966206;28;20107;-55
2022/01/28 03:40:03;;;;;;;19.17;4.03;;;5.90;99.90;;;;;;4979074;28;20400;-57
2022/01/28 03:42:28;;;;;;;23.48;4.47;;;5.80;99.90;;;;;;4976871;28;20416;-58
2022/01/28 03:44:54;;;;;;;25.08;5.20;;;5.80;99.90;;;;;;5064161;28;20038;-54
2022/01/28 03:47:20;;;;;;;21.35;5.38;;;5.80;99.90;;;;;;4981841;28;20154;-55
2022/01/28 03:49:45;;;;;;;28.20;3.95;;;5.80;99.90;;;;;;4977614;28;20042;-59
2022/01/28 03:52:11;;;;;;;31.33;4.00;;;5.80;99.90;;;;;;5063196;28;20382;-55
2022/01/28 03:54:37;;;;;;;24.45;4.60;;;5.80;99.90;;;;;;4980468;28;20053;-55
2022/01/28 03:57:04;;;;;;;23.73;4.35;;;5.80;99.90;;;;;;4974046;28;20185;-56
2022/01/28 03:59:30;;;;;;;25.50;4.45;;;5.80;99.90;;;;;;4974386;28;20046;-57
2022/01/28 04:01:56;;;;;;;22.08;4.13;;;5.90;99.90;;;;;;4977324;28;20038;-56
2022/01/28 04:12:29;;;;;;;22.92;4.47;;;6.00;99.90;;;;;;4979686;28;20042;-58
2022/01/28 04:17:29;;;;;;;29.17;5.45;;;6.00;99.90;;;;;;5007536;28;20497;-53
2022/01/28 04:19:55;;;;;;;28.33;5.50;;;6.00;99.90;;;;;;4975440;28;20049;-55
2022/01/28 04:22:21;;;;;;;30.08;5.25;;;6.00;99.90;;;;;;4978200;28;20374;-57
2022/01/28 04:24:47;;;;;;;28.75;6.22;;;6.10;99.90;;;;;;5059629;28;20452;-56
2022/01/28 04:27:13;;;;;;;25.15;5.95;;;6.10;99.90;;;;;;4967253;28;20722;-58
2022/01/28 04:29:39;;;;;;;19.20;4.22;;;6.10;99.90;;;;;;4962052;28;20413;-56
2022/01/28 04:32:05;;;;;;;20.55;4.88;;;6.10;99.90;;;;;;4958893;28;20040;-58
2022/01/28 04:34:31;;;;;;;21.92;3.70;;;6.10;99.90;;;;;;4959933;28;20530;-56
2022/01/28 04:42:34;;;;;;;25.55;4.70;;;6.20;99.90;;;;;;4975358;28;20746;-55
2022/01/28 04:48:05;;;;;;;26.35;4.97;;;6.10;99.90;;;;;;4969530;28;20083;-57
2022/01/28 05:27:11;;;;;;;21.20;4.88;;;5.80;99.80;;;;;;4972186;28;20050;-57
2022/01/28 05:29:39;;;;;;;19.92;4.10;;;5.80;99.90;;;;;;4976566;28;20081;-57
2022/01/28 05:32:12;;;;;;;30.08;4.63;;;5.70;99.40;;;;;;5054394;28;20054;-57
2022/01/28 05:34:39;;;;;;;23.20;5.03;;;5.70;99.90;;;;;;4973664;28;20043;-58
2022/01/28 05:37:05;;;;;;;23.55;4.40;;;5.70;99.20;;;;;;4978512;28;20049;-58
2022/01/28 05:39:31;;;;;;;23.25;4.13;;;5.60;99.50;;;;;;4977777;28;20035;-57
2022/01/28 05:41:57;;;;;;;26.15;5.80;;;5.70;99.30;;;;;;4988925;28;20042;-57
2022/01/28 05:44:23;;;;;;;18.23;3.63;;;5.60;99.60;;;;;;4979201;28;20053;-55
2022/01/28 05:46:50;;;;;;;26.88;3.83;;;5.60;99.50;;;;;;4970929;28;20031;-57
2022/01/28 05:49:16;;;;;;;15.90;4.10;;;5.60;99.70;;;;;;4968198;28;20046;-57
2022/01/28 05:51:43;;;;;;;26.05;3.88;;;5.60;99.90;;;;;;4957847;28;20046;-58
2022/01/28 05:54:09;;;;;;;17.13;3.90;;;5.50;99.80;;;;;;4970003;28;20057;-55
2022/01/28 05:56:36;;;;;;;24.27;4.57;;;5.50;99.90;;;;;;4980774;28;20311;-58
2022/01/28 05:59:02;;;;;;;25.70;4.65;;;5.40;99.90;;;;;;4955432;28;20038;-58
2022/01/28 06:01:28;;;;;;;30.42;4.80;;;5.50;99.90;;;;;;4961679;28;20039;-58
2022/01/28 06:03:54;;;;;;;28.17;4.70;;;5.50;99.90;;;;;;4966201;28;20066;-59
2022/01/28 06:06:21;;;;;;;32.42;4.30;;;5.40;99.90;;;;;;4962249;28;20216;-57
2022/01/28 06:08:49;;;;;;;24.50;4.65;;;5.40;99.90;;;;;;4973867;28;21731;-58
2022/01/28 06:11:16;;;;;;;22.25;3.97;;;5.40;99.90;;;;;;4973394;28;20497;-55
2022/01/28 06:13:42;;;;;;;24.42;5.13;;;5.40;99.90;;;;;;4981244;28;20042;-57
2022/01/28 06:16:12;;;;;;;24.38;4.40;;;5.40;99.90;;;;;;4970843;28;20061;-57
2022/01/28 06:18:39;;;;;;;23.40;3.78;;;5.30;99.90;;;;;;4969118;28;20085;-56
2022/01/28 06:21:05;;;;;;;24.35;4.55;;;5.30;99.90;;;;;;4967771;28;20493;-57
2022/01/28 06:23:32;;;;;;;30.52;5.55;;;5.30;99.90;;;;;;4958736;28;20610;-58
2022/01/28 06:25:57;;;;;;;16.75;3.42;;;5.30;99.90;;;;;;4965308;28;20042;-58
2022/01/28 06:28:23;;;;;;;21.20;4.22;;;5.30;99.90;;;;;;4968424;28;20042;-57
2022/01/28 06:30:49;;;;;;;23.42;4.18;;;5.20;99.90;;;;;;4966084;28;20054;-58
2022/01/28 06:33:15;;;;;;;19.75;4.43;;;5.20;99.90;;;;;;5041569;28;20374;-57
2022/01/28 06:35:43;;;;;;;27.42;5.15;;;5.20;99.90;;;;;;4976462;28;20036;-56
2022/01/28 06:38:09;;;;;;;26.17;4.22;;;5.20;99.90;;;;;;4966213;28;20489;-55
2022/01/28 06:40:35;;;;;;;34.47;5.00;;;5.20;99.90;;;;;;4948187;28;20103;-58
2022/01/28 06:43:01;;;;;;;24.63;6.43;;;5.20;99.90;;;;;;4974674;28;20046;-58
2022/01/28 06:45:26;;;;;;;23.92;4.05;;;5.20;99.90;;;;;;4966288;28;20071;-58
2022/01/28 06:47:52;;;;;;;23.80;4.13;;;5.10;99.90;;;;;;4949461;28;20062;-54
2022/01/28 06:50:18;;;;;;;48.85;7.50;;;5.10;99.90;;;;;;4966725;28;20412;-57
2022/01/28 06:52:44;;;;;;;27.85;4.22;;;5.10;99.90;;;;;;4964398;28;20509;-57
2022/01/28 06:55:12;;;;;;;27.05;5.05;;;5.10;99.90;;;;;;5037065;28;20350;-57
2022/01/28 06:57:38;;;;;;;26.30;4.25;;;5.10;99.90;;;;;;4970239;28;20557;-58
2022/01/28 07:00:06;;;;;;;30.08;5.13;;;5.10;99.90;;;;;;5048402;28;20115;-57
2022/01/28 07:02:31;;;;;;;24.52;4.50;;;5.10;99.90;;;;;;4968739;28;20447;-58
2022/01/28 07:04:58;;;;;;;29.88;4.57;;;5.00;99.90;;;;;;4965118;28;20073;-56
2022/01/28 07:07:25;;;;;;;24.08;4.32;;;5.00;99.90;;;;;;4974990;28;20409;-57
2022/01/28 07:09:52;;;;;;;30.50;4.40;;;5.00;99.90;;;;;;4961767;28;20047;-57
2022/01/28 07:12:18;;;;;;;29.77;5.78;;;5.00;99.90;;;;;;5055620;28;20487;-57
2022/01/28 07:14:44;;;;;;;35.05;4.97;;;5.00;99.90;;;;;;4964583;28;20505;-57
2022/01/28 07:17:10;;;;;;;28.73;4.75;;;5.00;99.90;;;;;;4973264;28;20043;-57
2022/01/28 07:19:36;;;;;;;25.83;5.00;;;5.00;99.90;;;;;;4980694;28;20035;-57
2022/01/28 07:22:02;;;;;;;30.98;5.07;;;4.90;99.90;;;;;;4974616;28;20034;-58
2022/01/28 07:27:02;;;;;;;24.13;4.35;;;5.00;99.90;;;;;;4984090;28;20054;-58
2022/01/28 07:29:30;;;;;;;27.27;4.10;;;5.00;99.90;;;;;;4980362;28;20054;-59
2022/01/28 07:31:56;;;;;;;21.10;4.63;;;5.00;99.90;;;;;;4996125;28;20034;-58
2022/01/28 07:34:23;;;;;;;30.25;5.30;;;5.00;99.90;;;;;;4987800;28;20144;-60
2022/01/28 07:36:49;;;;;;;29.85;5.43;;;5.00;99.90;;;;;;4973272;28;20038;-59
2022/01/28 07:39:14;;;;;;;28.35;4.80;;;5.00;99.90;;;;;;4975822;28;20046;-58
2022/01/28 07:41:40;;;;;;;29.27;4.00;;;4.90;99.90;;;;;;4977194;28;20042;-60
2022/01/28 07:44:06;;;;;;;26.58;5.18;;;4.90;99.90;;;;;;4989409;28;20038;-59
2022/01/28 07:46:33;;;;;;;21.02;4.88;;;4.90;99.90;;;;;;4982143;28;20057;-60
2022/01/28 07:49:00;;;;;;;26.05;4.80;;;4.90;99.90;;;;;;4969944;28;20095;-59
2022/01/28 07:51:25;;;;;;;21.95;5.47;;;4.90;99.90;;;;;;4976138;28;20438;-59
2022/01/28 07:53:51;;;;;;;23.00;4.45;;;5.00;99.90;;;;;;4989345;28;20099;-60
2022/01/28 07:56:18;;;;;;;30.10;5.03;;;5.00;99.90;;;;;;4974782;28;20049;-60
2022/01/28 07:58:43;;;;;;;26.20;4.63;;;5.00;99.90;;;;;;4968915;28;20087;-59
2022/01/28 08:01:09;;;;;;;28.42;5.63;;;5.00;99.90;;;;;;5001870;28;20476;-59
2022/01/28 08:03:35;;;;;;;20.05;4.05;;;5.00;99.90;;;;;;4963314;28;20126;-58
2022/01/28 08:06:01;;;;;;;25.02;4.75;;;5.00;99.90;;;;;;5001826;28;20038;-58
2022/01/28 08:08:27;;;;;;;25.08;4.07;;;5.00;99.90;;;;;;4975323;28;20061;-60
2022/01/28 08:10:52;;;;;;;21.95;4.25;;;5.00;99.90;;;;;;4996517;28;20134;-59
2022/01/28 08:13:18;;;;;;;31.55;5.07;;;5.00;99.90;;;;;;4997199;28;20053;-58
2022/01/28 08:15:44;;;;;;;33.75;4.93;;;5.00;99.90;;;;;;4990329;28;20055;-60
2022/01/28 08:18:11;;;;;;;32.50;4.55;;;5.00;99.90;;;;;;5003861;28;20521;-59
2022/01/28 08:20:37;;;;;;;42.95;6.72;;;5.00;99.90;;;;;;4978169;28;20138;-58
2022/01/28 08:23:04;;;;;;;23.35;5.82;;;5.00;99.90;;;;;;4977699;28;20103;-60
2022/01/28 08:25:33;;;;;;;33.13;4.97;;;5.00;99.90;;;;;;4980720;28;20399;-61
2022/01/28 08:27:59;;;;;;;24.40;4.95;;;5.00;99.90;;;;;;4994230;28;20044;-58
2022/01/28 08:30:27;;;;;;;20.15;4.72;;;4.90;99.90;;;;;;4974677;28;20100;-59
2022/01/28 08:32:53;;;;;;;23.35;4.35;;;4.90;99.90;;;;;;4984464;28;20460;-60
2022/01/28 08:35:24;;;;;;;23.48;4.55;;;4.90;99.90;;;;;;4983834;28;20513;-60
2022/01/28 08:37:50;;;;;;;16.40;3.53;;;4.90;99.90;;;;;;4977033;28;20116;-60
2022/01/28 08:40:17;;;;;;;24.05;4.80;;;5.00;99.90;;;;;;4994221;28;20569;-61
2022/01/28 08:42:43;;;;;;;25.45;4.63;;;5.00;99.90;;;;;;4976293;28;20189;-60
2022/01/28 08:45:09;;;;;;;28.33;4.43;;;5.00;99.90;;;;;;4991887;28;20121;-60
2022/01/28 08:47:35;;;;;;;22.83;3.92;;;5.00;99.90;;;;;;5001406;28;20049;-61
2022/01/28 08:50:01;;;;;;;28.00;3.80;;;5.10;99.90;;;;;;4996780;28;20045;-61
2022/01/28 08:52:26;;;;;;;22.63;3.90;;;5.10;99.90;;;;;;4993264;28;20049;-60
2022/01/28 08:54:52;;;;;;;36.17;5.63;;;5.10;99.90;;;;;;4963780;28;20064;-60
2022/01/28 08:57:18;;;;;;;20.00;3.55;;;5.10;99.90;;;;;;4965986;28;20056;-59
2022/01/28 08:59:44;;;;;;;28.50;6.43;;;5.20;99.90;;;;;;4975857;28;20037;-60
2022/01/28 09:02:11;;;;;;;34.63;6.85;;;5.20;99.90;;;;;;4986320;28;20462;-60
2022/01/28 09:04:37;;;;;;;25.63;4.75;;;5.30;99.90;;;;;;4989958;28;20535;-60
2022/01/28 09:07:03;;;;;;;27.35;4.63;;;5.40;99.90;;;;;;4987798;28;20047;-61
2022/01/28 09:09:29;;;;;;;22.25;4.30;;;5.50;99.90;;;;;;4990795;28;20124;-60
2022/01/28 09:14:25;;;;;;;21.70;4.85;;;5.70;99.90;;;;;;4974694;28;20050;-59
2022/01/28 09:16:52;;;;;;;33.25;4.78;;;5.90;99.90;;;;;;4995421;28;20091;-60
2022/01/28 09:19:18;;;;;;;31.85;5.00;;;5.90;99.90;;;;;;4993585;28;20103;-58
2022/01/28 09:21:44;;;;;;;23.42;3.72;;;6.00;99.90;;;;;;4988899;28;20046;-60
2022/01/28 09:24:10;;;;;;;24.20;4.30;;;6.00;99.90;;;;;;4996066;28;20050;-61
2022/01/28 09:26:36;;;;;;;28.45;4.88;;;6.00;99.90;;;;;;4991346;28;20453;-59
2022/01/28 09:29:03;;;;;;;32.35;4.22;;;6.10;99.90;;;;;;4984143;28;20075;-61
2022/01/28 09:31:29;;;;;;;20.65;4.43;;;6.00;99.90;;;;;;4983780;28;20590;-60
2022/01/28 09:33:55;;;;;;;30.10;5.63;;;6.10;99.90;;;;;;4989113;28;20042;-59
2022/01/28 09:36:21;;;;;;;33.00;8.73;;;6.10;99.90;;;;;;4987935;28;21491;-60
2022/01/28 09:38:48;;;;;;;29.15;4.78;;;6.10;99.90;;;;;;4987944;28;20102;-59
2022/01/28 09:41:15;;;;;;;28.30;4.72;;;6.10;99.90;;;;;;4994193;28;20033;-60
2022/01/28 09:43:43;;;;;;;21.38;4.57;;;6.10;99.90;;;;;;4981123;28;20034;-59
2022/01/28 09:46:09;;;;;;;23.08;3.85;;;6.10;99.90;;;;;;4999129;28;20509;-60
2022/01/28 09:48:35;;;;;;;23.95;5.53;;;6.10;99.90;;;;;;4993872;28;20033;-60
2022/01/28 09:51:03;;;;;;;19.33;3.70;;;6.10;99.90;;;;;;4991549;28;20122;-59
2022/01/28 09:53:29;;;;;;;24.02;3.42;;;6.00;99.90;;;;;;4991943;28;20859;-59
2022/01/28 09:55:55;;;;;;;27.83;4.85;;;6.00;99.90;;;;;;5002532;28;20470;-61
2022/01/28 09:58:21;;;;;;;24.65;4.22;;;6.10;99.90;;;;;;4999056;28;20068;-61
2022/01/28 10:00:47;;;;;;;23.60;4.25;;;6.10;99.90;;;;;;4987246;28;20075;-62
2022/01/28 10:03:15;;;;;;;22.05;3.83;;;6.10;99.90;;;;;;5000935;28;20034;-61
2022/01/28 10:05:44;;;;;;;23.83;5.72;;;6.30;99.90;;;;;;4973700;28;20046;-62
2022/01/28 10:08:24;;;;;;;26.40;4.38;;;6.40;99.90;;;;;;4966123;28;20043;-62
2022/01/28 10:10:54;;;;;;;19.50;3.85;;;6.50;99.90;;;;;;4998759;28;20511;-61
2022/01/28 10:13:49;;;;;;;22.63;4.68;;;6.50;99.90;;;;;;4983052;28;20042;-61
2022/01/28 10:16:28;;;;;;;26.17;3.97;;;6.50;99.90;;;;;;4965309;28;20483;-61
2022/01/28 10:18:57;;;;;;;17.33;3.58;;;6.60;99.90;;;;;;4976245;28;20037;-60
2022/01/28 10:21:28;;;;;;;21.63;3.67;;;6.60;99.90;;;;;;4984896;28;20037;-61
2022/01/28 10:24:19;;;;;;;19.70;3.42;;;6.60;99.90;;;;;;4969548;28;20038;-61
2022/01/28 10:27:09;;;;;;;24.10;4.88;;;6.70;99.90;;;;;;4978813;28;20505;-62
2022/01/28 10:29:36;;;;;;;24.08;4.13;;;6.70;99.90;;;;;;4989583;28;20102;-61
2022/01/28 10:32:06;;;;;;;18.13;4.20;;;6.80;99.90;;;;;;4973597;28;20042;-60
2022/01/28 10:34:33;;;;;;;21.52;4.03;;;6.80;99.90;;;;;;4953375;28;20050;-58
2022/01/28 10:37:28;;;;;;;21.13;3.88;;;6.80;99.90;;;;;;4982837;28;20193;-63
2022/01/28 10:40:03;;;;;;;19.58;4.20;;;6.90;99.90;;;;;;4975859;28;20127;-60
2022/01/28 10:42:34;;;;;;;17.88;4.28;;;6.90;99.90;;;;;;4989471;28;20073;-63
2022/01/28 10:45:14;;;;;;;23.17;4.60;;;6.90;99.90;;;;;;4971717;28;20134;-62
2022/01/28 10:47:47;;;;;;;19.42;3.67;;;7.00;99.90;;;;;;4980485;28;20058;-59
2022/01/28 10:50:25;;;;;;;23.95;4.13;;;7.00;99.90;;;;;;4975384;28;20472;-59
2022/01/28 10:53:08;;;;;;;15.70;3.47;;;7.10;99.90;;;;;;4972652;28;20033;-61
2022/01/28 10:55:37;;;;;;;25.08;5.60;;;7.10;99.90;;;;;;4989513;28;20046;-62
2022/01/28 10:58:15;;;;;;;26.17;4.47;;;7.10;99.90;;;;;;4983304;28;20060;-62
2022/01/28 11:00:49;;;;;;;21.92;4.00;;;7.30;99.90;;;;;;4995814;28;20458;-61
2022/01/28 11:03:17;;;;;;;20.13;3.50;;;7.30;99.90;;;;;;4976379;28;20125;-62
2022/01/28 11:05:44;;;;;;;22.60;3.70;;;7.40;99.90;;;;;;4990278;28;20048;-61
2022/01/28 11:08:14;;;;;;;17.20;4.05;;;7.50;99.90;;;;;;4997289;28;20044;-62
2022/01/28 11:10:41;;;;;;;17.40;4.57;;;7.50;99.90;;;;;;4973240;28;20187;-62
2022/01/28 11:13:07;;;;;;;19.35;4.00;;;7.60;99.90;;;;;;4973347;28;20041;-62
2022/01/28 11:15:34;;;;;;;24.40;4.43;;;7.50;99.70;;;;;;4988466;28;20035;-62
2022/01/28 11:18:03;;;;;;;20.35;3.88;;;7.50;99.90;;;;;;4979504;28;20040;-63
2022/01/28 11:20:59;;;;;;;21.02;4.18;;;7.50;99.90;;;;;;4996690;28;20053;-62
2022/01/28 11:23:33;;;;;;;25.33;4.75;;;7.50;99.90;;;;;;4986933;28;20092;-62
2022/01/28 11:26:04;;;;;;;16.27;3.47;;;7.50;99.90;;;;;;4990434;28;20082;-63
2022/01/28 11:28:50;;;;;;;21.65;4.18;;;7.50;99.90;;;;;;4980047;28;20088;-63
2022/01/28 11:31:55;;;;;;;24.13;3.88;;;7.40;99.90;;;;;;4995122;28;20033;-63
2022/01/28 11:34:24;;;;;;;25.30;5.63;;;7.40;99.90;;;;;;4993014;28;20474;-61
2022/01/28 11:36:55;;;;;;;22.90;5.10;;;7.40;99.90;;;;;;4990932;28;20034;-62
2022/01/28 11:39:30;;;;;;;29.02;4.80;;;7.30;99.90;;;;;;4996863;28;20046;-63
2022/01/28 11:42:26;;;;;;;19.23;4.38;;;7.30;99.80;;;;;;4993163;28;20084;-63
2022/01/28 11:44:59;;;;;;;21.85;4.30;;;7.30;99.90;;;;;;4988215;28;20626;-63
2022/01/28 11:47:33;;;;;;;19.42;4.78;;;7.40;99.90;;;;;;4967570;28;20034;-61
2022/01/28 11:50:10;;;;;;;;;;;7.60;99.90;;;;;;4991952;28;20122;-63
2022/01/28 11:52:44;;;;;;;25.75;5.03;;;7.70;99.20;;;;;;4992360;28;20050;-63
2022/01/28 11:55:28;;;;;;;15.30;3.42;;;8.00;99.30;;;;;;4968609;28;20642;-63
2022/01/28 11:58:20;;;;;;;18.75;3.47;;;8.20;98.10;;;;;;4996874;28;20046;-62
2022/01/28 12:00:54;;;;;;;29.15;5.88;;;8.20;98.40;;;;;;4992175;28;20053;-60
2022/01/28 12:03:25;;;;;;;18.08;3.40;;;8.20;97.80;;;;;;4979500;28;20050;-61
2022/01/28 12:05:53;;;;;;;20.25;3.38;;;8.30;98.10;;;;;;4976658;28;20087;-63
2022/01/28 12:08:20;;;;;;;19.45;3.55;;;8.40;97.50;;;;;;4984672;28;20039;-62
2022/01/28 12:10:49;;;;;;;19.25;4.10;;;8.40;97.70;;;;;;4933802;28;20093;-61
2022/01/28 12:13:17;;;;;;;16.00;3.22;;;8.60;98.70;;;;;;4970318;28;20505;-62
2022/01/28 12:16:11;;;;;;;28.77;3.80;;;8.80;98.20;;;;;;4977506;28;20052;-62
2022/01/28 12:18:46;;;;;;;20.07;5.30;;;8.80;97.50;;;;;;4997535;28;20046;-63
2022/01/28 12:21:14;;;;;;;26.42;5.65;;;9.00;98.20;;;;;;4984167;28;20041;-62
2022/01/28 12:23:40;;;;;;;19.05;3.00;;;9.10;97.90;;;;;;4994178;28;20396;-61
2022/01/28 12:26:06;;;;;;;23.48;3.85;;;9.10;97.50;;;;;;4991186;28;20049;-62
2022/01/28 12:28:31;;;;;;;19.67;4.07;;;9.00;97.50;;;;;;5001384;28;20037;-62
2022/01/28 12:31:06;;;;;;;13.32;3.97;;;9.20;97.90;;;;;;4984475;28;20033;-62
2022/01/28 12:33:34;;;;;;;19.20;3.35;;;9.20;97.80;;;;;;4973937;28;20041;-60
2022/01/28 12:36:10;;;;;;;17.17;3.65;;;8.90;97.60;;;;;;4995914;28;20681;-59
2022/01/28 12:38:42;;;;;;;19.23;3.33;;;8.70;97.10;;;;;;4991610;28;20112;-63
2022/01/28 12:41:09;;;;;;;22.70;4.18;;;8.70;97.70;;;;;;4991982;28;20163;-60
2022/01/28 12:43:38;;;;;;;24.48;4.55;;;8.60;98.10;;;;;;4999883;28;20038;-62
2022/01/28 12:46:08;;;;;;;21.95;3.22;;;8.50;97.90;;;;;;4971854;28;20203;-61
2022/01/28 12:48:34;;;;;;;23.98;3.55;;;8.40;98.40;;;;;;5004146;28;20107;-62
2022/01/28 12:51:02;;;;;;;22.30;3.35;;;8.50;98.90;;;;;;4995295;28;20051;-64
2022/01/28 12:53:39;;;;;;;19.88;3.13;;;8.40;98.60;;;;;;5000086;28;20081;-60
2022/01/28 12:56:06;;;;;;;25.83;3.63;;;8.30;98.10;;;;;;4996914;28;20129;-60
2022/01/28 12:58:46;;;;;;;16.38;2.60;;;8.20;98.40;;;;;;4986201;28;20033;-60
2022/01/28 13:01:14;;;;;;;23.23;3.58;;;8.40;99.00;;;;;;4974489;28;20034;-62
2022/01/28 13:04:01;;;;;;;17.55;3.25;;;8.50;98.80;;;;;;4986936;28;20038;-63
2022/01/28 13:09:13;;;;;;;19.98;3.38;;;8.70;98.50;;;;;;5002063;28;20045;-62
2022/01/28 13:11:50;;;;;;;16.70;2.92;;;8.70;98.20;;;;;;5001567;28;20044;-60
2022/01/28 13:14:36;;;;;;;16.42;2.50;;;8.50;97.90;;;;;;4977800;28;20084;-59
2022/01/28 13:17:08;;;;;;;18.58;3.17;;;8.40;98.60;;;;;;4992568;28;20174;-62
2022/01/28 13:19:34;;;;;;;18.42;3.92;;;8.40;98.80;;;;;;4996968;28;20046;-60
2022/01/28 13:22:00;;;;;;;9.57;2.50;;;8.30;98.90;;;;;;4974340;28;20052;-61
2022/01/28 13:24:29;;;;;;;15.52;3.13;;;8.30;99.10;;;;;;4978780;28;20053;-60
2022/01/28 13:26:58;;;;;;;13.32;2.60;;;8.30;99.00;;;;;;4978650;28;20110;-63
2022/01/28 13:29:34;;;;;;;21.45;3.35;;;8.30;99.00;;;;;;4988676;28;20086;-63
2022/01/28 13:32:11;;;;;;;17.77;3.33;;;8.30;99.30;;;;;;5001725;28;20042;-61
2022/01/28 13:34:54;;;;;;;17.73;3.75;;;8.40;99.30;;;;;;5004295;28;20537;-61
2022/01/28 13:37:43;;;;;;;11.77;2.70;;;8.30;98.80;;;;;;4983844;28;20081;-62
2022/01/28 13:40:18;;;;;;;18.95;3.08;;;8.40;99.00;;;;;;4964818;28;20561;-59
2022/01/28 13:43:06;;;;;;;22.23;3.20;;;8.40;99.00;;;;;;4982515;28;20041;-64
2022/01/28 13:45:37;;;;;;;15.18;3.45;;;8.30;98.20;;;;;;4993237;28;20042;-61
2022/01/28 13:48:21;;;;;;;11.85;2.58;;;8.30;99.00;;;;;;4992404;28;20084;-61
2022/01/28 13:50:53;;;;;;;15.68;3.97;;;8.30;99.10;;;;;;4994426;28;20054;-64
2022/01/28 13:56:01;;;;;;;15.57;2.83;;;8.20;99.70;;;;;;4987107;28;20042;-84
2022/01/28 13:58:28;;;;;;;12.90;2.17;;;8.30;99.90;;;;;;4988957;28;20129;-82
2022/01/28 14:00:54;;;;;;;16.00;2.55;;;8.20;99.90;;;;;;5001833;28;20033;-81
2022/01/28 14:03:21;;;;;;;16.25;2.85;;;8.10;99.90;;;;;;5068565;28;20104;-80
2022/01/28 14:05:58;;;;;;;16.60;3.17;;;8.10;99.90;;;;;;5067904;28;20036;-80
2022/01/28 14:08:48;;;;;;;9.25;2.22;;;8.10;99.90;;;;;;5065398;28;20040;-80
2022/01/28 14:11:38;;;;;;;16.38;5.90;;;8.10;99.90;;;;;;5015411;23;20504;-57
2022/01/28 14:14:26;;;;;;;25.30;3.58;;;8.00;99.90;;;;;;5008541;28;20516;-59
2022/01/28 14:16:55;;;;;;;20.35;3.58;;;8.00;99.90;;;;;;4977422;28;20052;-59
2022/01/28 14:19:24;;;;;;;14.48;3.15;;;8.00;99.90;;;;;;4992369;28;20041;-59
2022/01/28 14:21:51;;;;;;;13.68;2.95;;;8.00;99.90;;;;;;4975681;27;20047;-58
2022/01/28 14:24:29;;;;;;;18.23;3.60;;;8.00;99.90;;;;;;4990260;28;20276;-60
2022/01/28 14:32:08;;;;;;;14.73;3.92;;;7.90;99.90;;;;;;4999582;28;20054;-56
2022/01/28 14:34:34;;;;;;;14.30;3.83;;;7.80;99.90;;;;;;4995207;28;20124;-56
2022/01/28 14:37:04;;;;;;;17.63;2.88;;;7.80;99.90;;;;;;5005477;28;20086;-56
2022/01/28 14:39:32;;;;;;;12.35;2.70;;;7.80;99.90;;;;;;5007090;28;20495;-57
2022/01/28 14:42:03;;;;;;;12.00;4.00;;;7.80;99.90;;;;;;5019659;28;20500;-59